Johann — D5HS1 — position and weather

sailwx.info

Track history (hours):
 
Tides and Currents Weather Stations Pressure Air Temp Water Temp Dewpoint Dewpoint Depression Visibility Wind Speed Wind Dir Waves Ship Positions

Johann

Last reported at 2017-Oct-21 04:14 UTC. Time now 2017-Oct-22 15:46 UTC.
Position N 42°32' E 010°32'.

Length 115 m; draft 6.2 m.

Type: Cargo ship. MMSI: 636092297.

Date/timePositionNaut miles runAvg speedWind from/ knotsBaromVisibWave heightAir tempDewpointWater temp
2017-Oct-21 04:14N 42°32' E 010°32'  
2017-Oct-18 13:14N 37°23' W 000°03'210.1
2017-Oct-18 13:00N 37°22' W 000°05'256 9.8
2017-Oct-17 10:55N 36°05' W 005°10'510.1
2017-Oct-17 10:25N 36°05' W 005°16'6 1.0
2017-Oct-17 04:29N 36°09' W 005°22'3 5.3
2017-Oct-17 03:59N 36°06' W 005°22'4 8.4
2017-Oct-17 03:30N 36°02' W 005°22'4 8.2
2017-Oct-17 03:00N 35°59' W 005°25'5 9.1
2017-Oct-17 02:30N 35°57' W 005°30'6 9.1
2017-Oct-17 01:51N 35°55' W 005°37'3 9.1
2017-Oct-17 01:30N 35°55' W 005°41'5 9.4
2017-Oct-17 00:58N 35°55' W 005°48'157 8.8
2017-Oct-16 07:14N 36°30' W 008°57'210.0
2017-Oct-16 07:00N 36°31' W 008°59'10 9.7
2017-Oct-16 06:01N 36°33' W 009°11'0 9.6
2017-Oct-16 06:00N 36°33' W 009°11'6 9.2
2017-Oct-16 05:19N 36°36' W 009°18'6 9.5
2017-Oct-16 04:42N 36°40' W 009°24'8 9.2
2017-Oct-16 03:49N 36°46' W 009°31'3 9.8
2017-Oct-16 03:29N 36°48' W 009°33'41 9.5
2017-Oct-15 23:06N 37°29' W 009°44'1 9.2
2017-Oct-15 22:58N 37°30' W 009°44'5 9.2
2017-Oct-15 22:27N 37°35' W 009°46'10 9.0
2017-Oct-15 21:19N 37°45' W 009°49'3 8.8
2017-Oct-15 21:00N 37°47' W 009°49'4 8.9
2017-Oct-15 20:30N 37°52' W 009°51'5 9.0
2017-Oct-15 20:00N 37°56' W 009°52'4 8.9
2017-Oct-15 19:30N 38°01' W 009°53'4 8.8
2017-Oct-15 19:00N 38°05' W 009°54'4 8.6
2017-Oct-15 18:30N 38°09' W 009°56'5 9.0
2017-Oct-15 18:00N 38°13' W 009°57'5 9.1
2017-Oct-15 17:30N 38°18' W 009°58'5 9.0
2017-Oct-15 17:00N 38°22' W 009°60'4 8.8
2017-Oct-15 16:30N 38°26' W 010°01'4 8.8
2017-Oct-15 16:00N 38°31' W 010°02'5 9.2
2017-Oct-15 15:30N 38°35' W 010°03'5 9.1
2017-Oct-15 15:00N 38°40' W 010°04'9 9.2
2017-Oct-15 14:00N 38°49' W 010°05'5 9.4
2017-Oct-15 13:30N 38°54' W 010°05'5 9.3
2017-Oct-15 13:00N 38°58' W 010°05'5 9.6
2017-Oct-15 12:30N 39°03' W 010°05'510.0
2017-Oct-15 11:57N 39°09' W 010°05'510.0
2017-Oct-15 11:29N 39°13' W 010°05'5 9.8
2017-Oct-15 11:00N 39°18' W 010°05'5 9.8
2017-Oct-15 10:30N 39°23' W 010°05'5 9.7
2017-Oct-15 09:59N 39°28' W 010°05'  
2017-Oct-12 19:47N 48°52' W 005°50'2 8.4
2017-Oct-12 19:30N 48°54' W 005°49'5 8.3
2017-Oct-12 18:50N 48°58' W 005°42'3 8.6
2017-Oct-12 18:30N 48°59' W 005°38'17 9.1
2017-Oct-12 16:40N 49°07' W 005°16'2 9.8
2017-Oct-12 16:30N 49°08' W 005°14'1610.1
2017-Oct-12 14:55N 49°16' W 004°53'610.1
2017-Oct-12 14:18N 49°20' W 004°45'310.1
2017-Oct-12 13:58N 49°21' W 004°40'510.0
2017-Oct-12 13:30N 49°24' W 004°34'47 8.8
2017-Oct-12 08:14N 49°48' W 003°32'2 9.1
2017-Oct-12 08:00N 49°49' W 003°30'5 9.5
2017-Oct-12 07:28N 49°51' W 003°23'510.0
2017-Oct-12 07:00N 49°53' W 003°17'610.8
2017-Oct-12 06:30N 49°56' W 003°09'510.9
2017-Oct-12 06:00N 49°58' W 003°01'510.9
2017-Oct-12 05:30N 49°60' W 002°53'710.9
2017-Oct-12 04:53N 50°02' W 002°43'410.7
2017-Oct-12 04:30N 50°03' W 002°37'  
Track history (hours):
 
Tides and Currents Weather Stations Pressure Air Temp Water Temp Dewpoint Dewpoint Depression Visibility Wind Speed Wind Dir Waves Ship Positions

Johann

Last reported at 2017-Oct-21 04:14 UTC. Time now 2017-Oct-22 15:46 UTC.
Position N 42°32' E 010°32'.

Length 115 m; draft 6.2 m.

Type: Cargo ship. MMSI: 636092297.

Date/timePositionNaut miles runAvg speedWind from/ knotsBaromVisibWave heightAir tempDewpointWater temp
2017-Oct-21 04:14N 42°32' E 010°32'  
2017-Oct-18 13:14N 37°23' W 000°03'210.1
2017-Oct-18 13:00N 37°22' W 000°05'256 9.8
2017-Oct-17 10:55N 36°05' W 005°10'510.1
2017-Oct-17 10:25N 36°05' W 005°16'6 1.0
2017-Oct-17 04:29N 36°09' W 005°22'3 5.3
2017-Oct-17 03:59N 36°06' W 005°22'4 8.4
2017-Oct-17 03:30N 36°02' W 005°22'4 8.2
2017-Oct-17 03:00N 35°59' W 005°25'5 9.1
2017-Oct-17 02:30N 35°57' W 005°30'6 9.1
2017-Oct-17 01:51N 35°55' W 005°37'3 9.1
2017-Oct-17 01:30N 35°55' W 005°41'5 9.4
2017-Oct-17 00:58N 35°55' W 005°48'157 8.8
2017-Oct-16 07:14N 36°30' W 008°57'210.0
2017-Oct-16 07:00N 36°31' W 008°59'10 9.7
2017-Oct-16 06:01N 36°33' W 009°11'0 9.6
2017-Oct-16 06:00N 36°33' W 009°11'6 9.2
2017-Oct-16 05:19N 36°36' W 009°18'6 9.5
2017-Oct-16 04:42N 36°40' W 009°24'8 9.2
2017-Oct-16 03:49N 36°46' W 009°31'3 9.8
2017-Oct-16 03:29N 36°48' W 009°33'41 9.5
2017-Oct-15 23:06N 37°29' W 009°44'1 9.2
2017-Oct-15 22:58N 37°30' W 009°44'5 9.2
2017-Oct-15 22:27N 37°35' W 009°46'10 9.0
2017-Oct-15 21:19N 37°45' W 009°49'3 8.8
2017-Oct-15 21:00N 37°47' W 009°49'4 8.9
2017-Oct-15 20:30N 37°52' W 009°51'5 9.0
2017-Oct-15 20:00N 37°56' W 009°52'4 8.9
2017-Oct-15 19:30N 38°01' W 009°53'4 8.8
2017-Oct-15 19:00N 38°05' W 009°54'4 8.6
2017-Oct-15 18:30N 38°09' W 009°56'5 9.0
2017-Oct-15 18:00N 38°13' W 009°57'5 9.1
2017-Oct-15 17:30N 38°18' W 009°58'5 9.0
2017-Oct-15 17:00N 38°22' W 009°60'4 8.8
2017-Oct-15 16:30N 38°26' W 010°01'4 8.8
2017-Oct-15 16:00N 38°31' W 010°02'5 9.2
2017-Oct-15 15:30N 38°35' W 010°03'5 9.1
2017-Oct-15 15:00N 38°40' W 010°04'9 9.2
2017-Oct-15 14:00N 38°49' W 010°05'5 9.4
2017-Oct-15 13:30N 38°54' W 010°05'5 9.3
2017-Oct-15 13:00N 38°58' W 010°05'5 9.6
2017-Oct-15 12:30N 39°03' W 010°05'510.0
2017-Oct-15 11:57N 39°09' W 010°05'510.0
2017-Oct-15 11:29N 39°13' W 010°05'5 9.8
2017-Oct-15 11:00N 39°18' W 010°05'5 9.8
2017-Oct-15 10:30N 39°23' W 010°05'5 9.7
2017-Oct-15 09:59N 39°28' W 010°05'  
2017-Oct-12 19:47N 48°52' W 005°50'2 8.4
2017-Oct-12 19:30N 48°54' W 005°49'5 8.3
2017-Oct-12 18:50N 48°58' W 005°42'3 8.6
2017-Oct-12 18:30N 48°59' W 005°38'17 9.1
2017-Oct-12 16:40N 49°07' W 005°16'2 9.8
2017-Oct-12 16:30N 49°08' W 005°14'1610.1
2017-Oct-12 14:55N 49°16' W 004°53'610.1
2017-Oct-12 14:18N 49°20' W 004°45'310.1
2017-Oct-12 13:58N 49°21' W 004°40'510.0
2017-Oct-12 13:30N 49°24' W 004°34'47 8.8
2017-Oct-12 08:14N 49°48' W 003°32'2 9.1
2017-Oct-12 08:00N 49°49' W 003°30'5 9.5
2017-Oct-12 07:28N 49°51' W 003°23'510.0
2017-Oct-12 07:00N 49°53' W 003°17'610.8
2017-Oct-12 06:30N 49°56' W 003°09'510.9
2017-Oct-12 06:00N 49°58' W 003°01'510.9
2017-Oct-12 05:30N 49°60' W 002°53'710.9
2017-Oct-12 04:53N 50°02' W 002°43'410.7
2017-Oct-12 04:30N 50°03' W 002°37'  

Dump ship's entire track history